ノーフォーク島 の空港の天気 - METARとTAF

ノーフォーク島空港 ( YSNF / NLK ) - ノーフォーク島 ノーフォーク島
飛行場実況気象(Metar)
観測時間08/19 00:00 NFT (08/18 13:00 UTC)
風向・風速西北西 6m/s
視程10km以上
天気現象弱いしゅう雨
全天の8割程度の雲 雲底高度 270m
全天の8割程度の雲 雲底高度 400m
全天を覆う雲 雲底高度 610m
気温16℃
湿度94%
気圧1011hPa
METARYSNF 181300Z AUTO 29012KT 9999 -SHRA BKN009 BKN013 OVC020 16/15 Q1011
過去の天気等 Google飛行場航空写真 Wunderground天気予報

過去48時間のMETAR

飛行場予報(TAF)
発表時間: 8/18 23:35 NFT (8/18 12:35 UTC)
予報対象時間: 18日23時 NFT ~ 19日23時 NFT
風向・風速北西 6m/s
視程10km以上
天気現象弱いしゅう雨
全天の8割程度の雲 雲底高度 300m
全天の4割程度の雲 雲底高度 910m
18日23時 NFT ~ 19日1時 NFT に徐々に
風向・風速西 6m/s
視程10km以上
天気現象運行に影響にある天気現象が終了
全天の4割程度の雲 雲底高度 460m
全天の8割程度の雲 雲底高度 910m
19日11時 NFT から
風向・風速西北西 6m/s
視程10km以上
全天の4割程度の雲 雲底高度 910m
TAF AMD YSNF 181235Z 1812/1912 31012KT 9999 -SHRA BKN010 SCT030
BECMG 1812/1814 28012KT 9999 NSW SCT015 BKN030
FM190000 30012KT 9999 SCT030 INTER 1812/1814 4000 SHRA BKN008